Time;durP1;ratioP1;P1;durP2;ratioP2;P2;SDS_P1;SDS_P2;PMS_P1;PMS_P2;Temp;Humidity;BMP_temperature;BMP_pressure;BME280_temperature;BME280_humidity;BME280_pressure;Samples;Min_cycle;Max_cycle;Signal;HPM_P1;HPM_P2
2022/12/21 00:01:32;;;;;;;41.70;19.83;;;;;;;2.78;71.92;100701.78;4485030;31;33662;-72
2022/12/21 00:04:02;;;;;;;41.53;20.77;;;;;;;3.09;71.13;100702.88;4484758;31;34418;-72
2022/12/21 00:06:34;;;;;;;51.65;21.48;;;;;;;3.17;69.91;100701.00;4484671;31;33237;-72
2022/12/21 00:09:04;;;;;;;43.97;21.20;;;;;;;3.14;70.30;100702.53;4482902;31;33484;-72
2022/12/21 00:11:32;;;;;;;49.55;19.98;;;;;;;3.06;70.04;100702.63;4486705;31;34755;-72
2022/12/21 00:14:01;;;;;;;43.55;20.65;;;;;;;3.04;70.34;100701.59;4483594;31;33992;-72
2022/12/21 00:16:32;;;;;;;47.95;22.10;;;;;;;2.69;71.70;100702.78;4484042;31;33271;-72
2022/12/21 00:19:02;;;;;;;37.85;19.73;;;;;;;3.05;70.09;100698.25;4486111;31;35198;-72
2022/12/21 00:21:34;;;;;;;39.25;19.62;;;;;;;3.05;70.22;100700.81;4484113;31;33208;-72
2022/12/21 00:24:03;;;;;;;42.90;19.85;;;;;;;3.12;69.95;100692.91;4486549;31;33414;-72
2022/12/21 00:26:35;;;;;;;40.47;20.60;;;;;;;3.01;69.99;100697.06;4487170;31;33475;-72
2022/12/21 00:29:04;;;;;;;37.47;19.02;;;;;;;3.14;69.44;100701.63;4489882;31;33907;-72
2022/12/21 00:31:34;;;;;;;44.03;20.12;;;;;;;2.84;70.22;100695.59;4488599;31;34425;-72
2022/12/21 00:34:03;;;;;;;39.22;19.30;;;;;;;2.61;72.07;100697.72;4485479;32;33755;-72
2022/12/21 00:36:32;;;;;;;44.78;20.98;;;;;;;2.80;70.96;100693.53;4485307;32;33988;-72
2022/12/21 00:39:01;;;;;;;44.28;20.40;;;;;;;2.68;71.71;100689.84;4487894;31;34239;-72
2022/12/21 00:41:29;;;;;;;42.97;21.58;;;;;;;3.09;69.95;100693.56;4487183;31;34023;-72
2022/12/21 00:43:56;;;;;;;42.70;20.58;;;;;;;2.99;70.03;100687.47;4487310;31;33855;-72
2022/12/21 00:46:30;;;;;;;39.88;20.58;;;;;;;3.13;69.59;100684.50;4487910;31;33776;-72
2022/12/21 00:48:59;;;;;;;45.15;20.83;;;;;;;2.94;70.68;100689.62;4483670;31;34708;-72
2022/12/21 00:51:28;;;;;;;41.42;20.45;;;;;;;3.24;68.88;100685.41;4485207;32;34808;-72
2022/12/21 00:53:58;;;;;;;43.50;21.50;;;;;;;3.20;68.85;100684.25;4487165;31;33325;-72
2022/12/21 00:56:26;;;;;;;43.75;20.73;;;;;;;3.07;69.61;100689.03;4498259;31;33149;-72
2022/12/21 00:58:54;;;;;;;42.05;20.33;;;;;;;2.81;70.59;100690.19;4489692;31;33900;-72
2022/12/21 01:01:29;;;;;;;38.70;21.92;;;;;;;2.84;71.26;100689.56;4494467;31;33689;-72
2022/12/21 01:03:57;;;;;;;44.83;20.95;;;;;;;3.12;69.37;100687.78;4491365;31;34710;-72
2022/12/21 01:06:36;;;;;;;43.55;20.85;;;;;;;3.31;68.53;100682.62;4474677;31;33514;-72
2022/12/21 01:09:05;;;;;;;40.03;20.23;;;;;;;3.17;69.19;100686.56;4499750;31;33738;-72
2022/12/21 01:11:33;;;;;;;40.53;20.58;;;;;;;3.29;68.51;100690.19;4494687;31;33822;-72
2022/12/21 01:14:03;;;;;;;41.22;20.73;;;;;;;3.56;67.64;100679.66;4496016;31;33259;-72
2022/12/21 01:16:32;;;;;;;38.33;19.92;;;;;;;3.23;68.10;100681.97;4488459;31;33918;-72
2022/12/21 01:19:00;;;;;;;41.83;19.65;;;;;;;3.12;68.35;100682.69;4492070;31;33744;-72
2022/12/21 01:21:29;;;;;;;41.22;20.98;;;;;;;3.32;68.54;100681.84;4490936;31;33978;-72
2022/12/21 01:23:58;;;;;;;41.63;19.52;;;;;;;3.02;69.13;100674.97;4485338;31;34408;-72
2022/12/21 01:26:27;;;;;;;35.67;18.65;;;;;;;3.73;67.07;100670.09;4499180;31;34281;-72
2022/12/21 01:28:55;;;;;;;41.03;19.75;;;;;;;3.22;68.51;100664.78;4495895;31;33654;-72
2022/12/21 01:31:23;;;;;;;40.35;19.30;;;;;;;3.30;69.03;100663.81;4498765;31;34169;-72
2022/12/21 01:33:51;;;;;;;35.30;18.02;;;;;;;3.15;69.36;100658.25;4499226;31;34388;-72
2022/12/21 01:36:18;;;;;;;42.85;19.83;;;;;;;2.94;70.07;100657.25;4499175;31;33714;-72
2022/12/21 01:38:47;;;;;;;39.03;19.98;;;;;;;3.09;69.32;100651.69;4497251;31;33750;-72
2022/12/21 01:41:16;;;;;;;36.33;18.60;;;;;;;3.29;68.36;100649.22;4498283;31;34147;-72
2022/12/21 01:43:48;;;;;;;38.67;19.02;;;;;;;3.16;69.40;100648.91;4490733;31;33793;-72
2022/12/21 01:46:24;;;;;;;36.75;17.90;;;;;;;3.43;68.12;100639.25;4500044;31;34120;-72
2022/12/21 01:48:57;;;;;;;;;;;;;;;3.25;69.03;100638.56;4496019;31;33652;-72
2022/12/21 01:51:25;;;;;;;35.67;17.17;;;;;;;3.16;69.06;100628.41;4480572;31;33843;-72
2022/12/21 01:53:57;;;;;;;36.20;18.02;;;;;;;3.22;69.02;100628.94;4498105;31;34100;-72
2022/12/21 01:56:30;;;;;;;40.05;18.85;;;;;;;3.13;68.66;100635.84;4495423;31;33892;-72
2022/12/21 01:59:04;;;;;;;36.22;17.80;;;;;;;3.33;68.11;100623.09;4471124;31;34602;-72
2022/12/21 02:01:31;;;;;;;41.80;18.27;;;;;;;3.61;66.13;100620.37;4492799;31;33512;-72
2022/12/21 02:03:59;;;;;;;35.38;19.30;;;;;;;3.41;66.60;100615.19;4491778;31;34591;-72
2022/12/21 02:06:50;;;;;;;40.97;19.20;;;;;;;2.99;68.54;100623.47;4480711;31;33290;-72
2022/12/21 02:09:18;;;;;;;38.58;19.23;;;;;;;3.10;68.55;100617.66;4478805;31;33856;-72
2022/12/21 02:11:49;;;;;;;37.67;18.08;;;;;;;3.11;67.53;100609.19;4495808;31;33889;-72
2022/12/21 02:14:18;;;;;;;43.67;19.30;;;;;;;3.03;67.84;100615.31;4494505;31;33668;-72
2022/12/21 02:16:59;;;;;;;39.63;18.17;;;;;;;3.18;68.21;100606.41;4488961;31;33271;-72
2022/12/21 02:19:32;;;;;;;37.10;17.02;;;;;;;3.05;68.11;100604.47;4487661;31;33904;-72
2022/12/21 02:22:27;;;;;;;36.78;18.20;;;;;;;3.27;66.91;100603.75;4491731;31;34039;-72
2022/12/21 02:25:09;;;;;;;38.77;18.43;;;;;;;3.08;68.11;100593.59;4484153;31;33625;-72
2022/12/21 02:28:02;;;;;;;40.03;18.98;;;;;;;3.58;66.06;100589.34;4499745;31;32225;-72
2022/12/21 02:31:04;;;;;;;38.08;17.55;;;;;;;3.80;65.30;100596.28;4498828;31;33631;-72
2022/12/21 02:33:53;;;;;;;37.33;17.10;;;;;;;3.56;65.80;100592.56;4496014;31;33588;-72
2022/12/21 02:36:47;;;;;;;33.85;16.15;;;;;;;3.49;65.90;100583.44;4481806;31;33513;-72
2022/12/21 02:39:18;;;;;;;42.22;19.08;;;;;;;3.64;65.30;100574.50;4491942;31;33238;-72
2022/12/21 02:41:55;;;;;;;36.60;17.85;;;;;;;3.66;66.57;100572.06;4489404;31;33369;-72
2022/12/21 02:44:32;;;;;;;36.45;18.77;;;;;;;3.08;68.06;100573.09;4493762;31;32434;-72
2022/12/21 02:47:11;;;;;;;40.25;18.75;;;;;;;3.64;67.03;100569.37;4478998;31;33814;-72
2022/12/21 02:49:43;;;;;;;35.33;17.45;;;;;;;3.32;67.95;100552.19;4482869;31;33847;-72
2022/12/21 02:52:23;;;;;;;39.67;18.98;;;;;;;3.71;65.51;100560.56;4492161;31;34344;-72
2022/12/21 02:54:57;;;;;;;40.50;18.58;;;;;;;3.62;66.44;100559.78;4496433;31;35198;-72
2022/12/21 02:57:44;;;;;;;37.50;18.55;;;;;;;3.24;68.29;100565.97;4492818;31;33710;-72
2022/12/21 03:00:14;;;;;;;38.40;18.50;;;;;;;3.42;67.97;100555.50;4490123;31;33175;-72
2022/12/21 03:06:03;;;;;;;38.05;17.55;;;;;;;3.23;67.31;100548.81;4495865;31;34244;-72
2022/12/21 03:08:55;;;;;;;39.42;18.20;;;;;;;3.31;67.83;100537.56;4495021;31;33464;-72
2022/12/21 03:11:31;;;;;;;39.42;17.35;;;;;;;3.60;65.89;100536.56;4486823;31;33180;-72
2022/12/21 03:14:04;;;;;;;38.97;16.10;;;;;;;3.48;65.87;100535.56;4478147;31;33941;-72
2022/12/21 03:16:35;;;;;;;38.03;16.95;;;;;;;3.65;65.76;100540.44;4491992;31;34320;-72
2022/12/21 03:19:19;;;;;;;40.58;17.67;;;;;;;3.76;65.09;100536.19;4495062;31;33908;-72
2022/12/21 03:21:49;;;;;;;36.50;16.58;;;;;;;4.07;64.15;100531.03;4494317;31;33062;-72
2022/12/21 03:24:26;;;;;;;37.10;17.33;;;;;;;3.48;65.77;100526.19;4480853;31;33956;-72
2022/12/21 03:26:58;;;;;;;37.83;18.25;;;;;;;3.41;66.50;100523.00;4462941;31;34524;-72
2022/12/21 03:29:30;;;;;;;38.20;18.00;;;;;;;3.08;69.04;100514.22;4481554;31;33969;-72
2022/12/21 03:32:02;;;;;;;36.95;17.62;;;;;;;3.40;67.28;100516.06;4474151;31;34083;-72
2022/12/21 03:34:34;;;;;;;35.70;17.40;;;;;;;3.38;66.68;100512.47;4489464;31;34625;-72
2022/12/21 03:37:23;;;;;;;36.00;17.48;;;;;;;2.94;68.78;100526.75;4488003;31;33933;-72
2022/12/21 03:40:00;;;;;;;37.78;17.23;;;;;;;3.24;67.85;100531.78;4493622;31;33537;-72
2022/12/21 03:42:35;;;;;;;35.15;17.60;;;;;;;3.13;67.51;100530.91;4495593;31;34026;-72
2022/12/21 03:45:10;;;;;;;35.35;17.30;;;;;;;3.74;64.59;100541.19;4477026;31;33593;-72
2022/12/21 03:47:45;;;;;;;36.83;16.50;;;;;;;3.13;67.96;100536.00;4497650;31;33736;-72
2022/12/21 03:50:17;;;;;;;41.17;17.95;;;;;;;3.09;67.99;100528.81;4491421;31;34683;-72
2022/12/21 03:53:05;;;;;;;35.10;15.93;;;;;;;3.55;65.32;100542.97;4486299;31;33640;-72
2022/12/21 03:55:35;;;;;;;35.42;16.65;;;;;;;3.33;65.52;100546.28;4477864;31;34026;-72
2022/12/21 03:58:03;;;;;;;31.83;15.85;;;;;;;3.85;63.46;100539.53;4471447;31;32359;-72
2022/12/21 04:01:00;;;;;;;37.67;16.77;;;;;;;3.07;66.96;100540.56;4488059;31;34351;-72
2022/12/21 04:03:34;;;;;;;35.67;16.87;;;;;;;2.88;67.37;100531.31;4469466;31;33961;-72
2022/12/21 04:06:09;;;;;;;34.25;16.25;;;;;;;3.39;65.68;100534.78;4477875;31;31938;-72
2022/12/21 04:08:37;;;;;;;38.22;17.90;;;;;;;3.33;65.39;100536.03;4480181;31;33898;-72
2022/12/21 04:11:05;;;;;;;34.22;15.38;;;;;;;3.71;63.89;100538.37;4484807;31;33505;-72
2022/12/21 04:13:34;;;;;;;38.42;17.12;;;;;;;3.20;66.28;100533.19;4481345;31;34352;-72
2022/12/21 04:16:04;;;;;;;34.85;16.98;;;;;;;3.56;64.91;100531.06;4484927;31;33485;-72
2022/12/21 04:21:20;;;;;;;31.83;15.43;;;;;;;3.43;64.67;100526.56;4478199;31;34539;-72
2022/12/21 04:29:19;;;;;;;28.25;14.50;;;;;;;4.03;62.31;100524.75;4495185;31;33951;-72
2022/12/21 04:31:47;;;;;;;33.20;14.85;;;;;;;3.88;62.58;100526.06;4499178;31;33678;-72
2022/12/21 04:34:15;;;;;;;29.27;14.82;;;;;;;3.02;65.77;100511.16;4497488;31;34330;-72
2022/12/21 04:39:28;;;;;;;33.45;14.75;;;;;;;3.09;64.94;100498.09;4494474;31;34514;-72
2022/12/21 04:41:55;;;;;;;30.70;15.50;;;;;;;2.87;65.20;100503.03;4495151;31;34199;-72
2022/12/21 04:44:23;;;;;;;28.80;14.68;;;;;;;2.95;65.27;100507.16;4497937;31;34490;-72
2022/12/21 04:46:51;;;;;;;32.78;14.90;;;;;;;3.09;64.14;100509.25;4492765;31;34673;-72
2022/12/21 04:49:18;;;;;;;35.08;15.27;;;;;;;3.20;63.83;100506.69;4478324;31;33276;-72
2022/12/21 04:51:46;;;;;;;35.92;15.55;;;;;;;3.60;62.85;100510.97;4487962;31;33480;-72
2022/12/21 04:54:13;;;;;;;34.63;15.70;;;;;;;3.13;64.37;100510.41;4489417;31;34045;-72
2022/12/21 04:56:41;;;;;;;27.42;13.73;;;;;;;3.19;64.49;100518.63;4492919;31;33890;-72
2022/12/21 04:59:08;;;;;;;32.20;14.68;;;;;;;3.73;63.14;100507.75;4493563;31;34649;-72
2022/12/21 05:01:36;;;;;;;33.05;15.00;;;;;;;3.58;62.58;100496.25;4490027;31;34340;-72
2022/12/21 05:04:10;;;;;;;28.50;13.85;;;;;;;3.09;63.68;100493.88;4491622;31;33857;-72
2022/12/21 05:06:38;;;;;;;27.62;12.48;;;;;;;3.12;63.48;100490.69;4492677;31;33793;-72
2022/12/21 05:09:05;;;;;;;28.12;13.15;;;;;;;2.64;65.80;100506.16;4494496;31;32794;-72
2022/12/21 05:11:34;;;;;;;29.80;15.13;;;;;;;2.90;65.14;100501.66;4495027;31;34053;-72
2022/12/21 05:14:02;;;;;;;27.95;13.20;;;;;;;2.79;66.03;100497.25;4497364;31;33562;-72
2022/12/21 05:16:29;;;;;;;30.02;14.45;;;;;;;3.02;64.86;100498.34;4495020;31;34572;-72
2022/12/21 05:18:57;;;;;;;34.90;14.73;;;;;;;2.93;64.91;100491.66;4472234;32;34879;-72
2022/12/21 05:21:25;;;;;;;31.70;15.05;;;;;;;2.75;65.76;100497.75;4488238;31;34577;-72
2022/12/21 05:23:52;;;;;;;32.95;15.20;;;;;;;2.59;66.30;100490.44;4494461;31;33244;-72
2022/12/21 05:26:20;;;;;;;33.58;15.13;;;;;;;2.75;65.39;100490.97;4496778;31;34696;-72
2022/12/21 05:28:47;;;;;;;30.75;13.98;;;;;;;2.79;65.79;100481.03;4482053;31;34555;-72
2022/12/21 05:31:16;;;;;;;32.28;14.57;;;;;;;2.68;66.20;100482.62;4490052;31;34593;-72
2022/12/21 05:33:43;;;;;;;34.00;14.87;;;;;;;2.82;65.76;100482.19;4483696;31;33320;-72
2022/12/21 05:36:13;;;;;;;31.45;14.13;;;;;;;2.85;64.87;100482.44;4496317;31;33825;-72
2022/12/21 05:38:41;;;;;;;30.00;13.80;;;;;;;2.47;66.30;100477.47;4469925;31;32500;-72
2022/12/21 05:41:11;;;;;;;31.37;14.75;;;;;;;2.70;66.24;100492.22;4496561;31;33753;-72
2022/12/21 05:43:39;;;;;;;31.90;14.75;;;;;;;2.60;66.81;100486.19;4472952;31;34039;-72
2022/12/21 05:46:09;;;;;;;37.08;16.73;;;;;;;3.25;64.95;100490.06;4488787;31;33527;-72
2022/12/21 05:48:37;;;;;;;34.50;14.95;;;;;;;2.92;65.83;100494.09;4470148;32;32883;-72
2022/12/21 05:51:12;;;;;;;31.05;14.98;;;;;;;2.85;66.50;100486.66;4490049;31;33938;-72
2022/12/21 05:53:43;;;;;;;31.80;16.10;;;;;;;2.95;66.68;100485.03;4484956;31;36859;-72
2022/12/21 05:56:12;;;;;;;33.03;14.20;;;;;;;3.03;66.02;100477.97;4491320;31;33657;-72
2022/12/21 05:58:40;;;;;;;33.88;15.50;;;;;;;3.00;66.27;100476.84;4486971;31;34020;-72
2022/12/21 06:01:09;;;;;;;33.47;16.30;;;;;;;2.85;66.78;100467.09;4483029;31;33948;-72
2022/12/21 06:03:37;;;;;;;35.42;16.62;;;;;;;2.71;67.34;100473.56;4485275;32;33229;-72
2022/12/21 06:06:10;;;;;;;32.53;17.15;;;;;;;2.60;68.11;100478.53;4491205;31;33852;-72
2022/12/21 06:08:38;;;;;;;38.25;16.60;;;;;;;2.67;67.71;100470.63;4489954;31;33796;-72
2022/12/21 06:11:11;;;;;;;38.58;17.67;;;;;;;2.95;67.26;100482.47;4488141;31;34370;-72
2022/12/21 06:13:40;;;;;;;41.58;18.08;;;;;;;3.24;66.34;100484.03;4492414;31;33152;-72
2022/12/21 06:16:16;;;;;;;35.15;16.90;;;;;;;2.65;69.15;100477.28;4485076;32;34875;-72
2022/12/21 06:18:44;;;;;;;41.35;19.08;;;;;;;2.67;69.45;100480.87;4485120;32;33604;-72
2022/12/21 06:21:13;;;;;;;39.30;19.25;;;;;;;2.56;69.89;100478.25;4490823;31;33734;-72
2022/12/21 06:23:41;;;;;;;38.42;17.85;;;;;;;2.78;68.93;100482.66;4493920;31;34084;-72
2022/12/21 06:26:13;;;;;;;39.33;18.62;;;;;;;2.50;69.87;100477.72;4499066;31;33826;-72
2022/12/21 06:28:41;;;;;;;37.80;17.80;;;;;;;2.71;69.08;100482.91;4475673;31;33464;-72
2022/12/21 06:31:11;;;;;;;37.78;18.23;;;;;;;2.78;68.62;100487.78;4489250;31;34589;-72
2022/12/21 06:33:39;;;;;;;33.72;17.25;;;;;;;2.48;68.99;100498.81;4497628;31;33158;-72
2022/12/21 06:36:08;;;;;;;35.55;16.65;;;;;;;2.70;67.54;100487.09;4498100;31;34066;-72
2022/12/21 06:38:36;;;;;;;34.70;16.15;;;;;;;2.76;66.53;100484.19;4497625;31;33560;-72
2022/12/21 06:41:09;;;;;;;38.38;16.37;;;;;;;2.64;67.07;100475.47;4491072;31;34548;-72
2022/12/21 06:43:38;;;;;;;37.15;17.25;;;;;;;2.52;67.37;100470.19;4493251;31;33689;-72
2022/12/21 06:46:08;;;;;;;38.13;18.50;;;;;;;2.47;68.12;100472.34;4500542;31;33601;-72
2022/12/21 06:48:36;;;;;;;37.03;18.23;;;;;;;2.58;67.85;100465.59;4471124;31;32253;-72
2022/12/21 06:51:08;;;;;;;44.72;20.30;;;;;;;2.29;69.44;100471.63;4489795;31;34268;-72
2022/12/21 06:53:37;;;;;;;43.72;20.10;;;;;;;2.33;70.07;100462.56;4476935;31;34730;-72
2022/12/21 06:56:07;;;;;;;41.35;19.87;;;;;;;2.52;69.92;100465.97;4489909;31;34546;-72
2022/12/21 06:58:43;;;;;;;42.90;20.00;;;;;;;3.10;68.06;100464.94;4499496;31;33693;-72
2022/12/21 07:01:13;;;;;;;43.80;20.58;;;;;;;3.00;67.93;100466.63;4484929;31;33833;-72
2022/12/21 07:03:42;;;;;;;44.25;20.02;;;;;;;2.76;69.10;100458.59;4493143;31;34231;-72
2022/12/21 07:06:13;;;;;;;40.40;19.33;;;;;;;3.03;67.72;100459.19;4498271;31;35233;-72
2022/12/21 07:08:41;;;;;;;46.65;20.12;;;;;;;2.95;67.82;100469.69;4492000;31;34551;-72
2022/12/21 07:11:11;;;;;;;42.10;19.77;;;;;;;2.67;69.16;100460.41;4495035;31;34414;-72
2022/12/21 07:13:42;;;;;;;40.88;19.95;;;;;;;2.88;68.11;100467.34;4491167;31;32832;-72
2022/12/21 07:16:10;;;;;;;40.55;19.42;;;;;;;2.58;69.06;100467.28;4498635;31;32957;-72
2022/12/21 07:18:39;;;;;;;39.28;19.17;;;;;;;2.50;69.30;100454.69;4494276;31;34320;-72
2022/12/21 07:21:10;;;;;;;37.55;18.87;;;;;;;2.80;68.19;100458.13;4494809;31;33695;-73
2022/12/21 07:23:39;;;;;;;40.05;18.35;;;;;;;2.94;67.49;100465.31;4488614;31;33021;-72
2022/12/21 07:26:08;;;;;;;38.08;17.58;;;;;;;2.69;68.06;100461.44;4490844;31;34728;-72
2022/12/21 07:28:35;;;;;;;36.90;17.60;;;;;;;2.67;67.99;100468.06;4490103;31;34110;-72
2022/12/21 07:31:05;;;;;;;40.78;17.67;;;;;;;2.94;66.80;100457.63;4481164;31;32558;-72
2022/12/21 07:33:33;;;;;;;41.22;18.67;;;;;;;2.58;68.12;100464.72;4488705;31;33399;-72
2022/12/21 07:36:02;;;;;;;38.00;16.85;;;;;;;2.97;66.17;100461.22;4497711;31;33614;-72
2022/12/21 07:38:32;;;;;;;38.30;17.25;;;;;;;2.99;67.13;100470.81;4495007;31;33135;-72
2022/12/21 07:41:01;;;;;;;42.62;17.80;;;;;;;2.70;67.12;100458.09;4488966;31;33829;-72
2022/12/21 07:43:29;;;;;;;44.65;20.60;;;;;;;2.60;67.03;100463.19;4484224;32;34504;-72
2022/12/21 07:45:59;;;;;;;41.13;19.20;;;;;;;3.08;65.52;100456.25;4481863;32;33131;-72
2022/12/21 07:48:26;;;;;;;37.53;19.08;;;;;;;3.13;64.94;100459.22;4486752;31;33893;-72
2022/12/21 07:50:57;;;;;;;36.22;18.85;;;;;;;3.25;65.38;100455.13;4485163;31;33057;-72
2022/12/21 07:53:25;;;;;;;35.85;18.02;;;;;;;2.90;66.34;100450.47;4489522;31;34159;-72
2022/12/21 07:55:58;;;;;;;42.10;21.75;;;;;;;3.18;65.15;100455.34;4485176;31;34002;-72
2022/12/21 07:58:25;;;;;;;53.08;26.48;;;;;;;3.20;64.58;100453.81;4491163;31;33513;-73
2022/12/21 08:00:53;;;;;;;38.55;20.12;;;;;;;3.34;63.66;100452.41;4492688;31;35034;-72
2022/12/21 08:03:21;;;;;;;41.78;22.80;;;;;;;3.64;63.54;100446.38;4493880;31;32553;-72
2022/12/21 08:05:53;;;;;;;38.35;19.25;;;;;;;3.34;63.63;100455.91;4484267;32;34256;-72
2022/12/21 08:08:20;;;;;;;41.33;18.92;;;;;;;3.16;64.11;100464.56;4484456;32;33888;-72
2022/12/21 08:10:48;;;;;;;35.80;17.30;;;;;;;3.33;63.47;100464.34;4483034;31;33873;-72
2022/12/21 08:13:16;;;;;;;39.22;19.75;;;;;;;3.28;63.88;100464.72;4493654;31;33250;-72
2022/12/21 08:15:43;;;;;;;44.97;21.70;;;;;;;3.56;62.64;100457.69;4481354;31;33603;-72
2022/12/21 08:18:11;;;;;;;43.65;18.70;;;;;;;3.08;64.16;100450.25;4485921;31;34798;-72
2022/12/21 08:20:42;;;;;;;36.80;17.90;;;;;;;3.43;63.05;100449.75;4494490;31;34005;-72
2022/12/21 08:23:11;;;;;;;41.20;18.87;;;;;;;3.03;64.15;100446.38;4483408;31;33373;-72
2022/12/21 08:25:46;;;;;;;37.78;19.02;;;;;;;3.10;63.84;100443.59;4483954;31;33454;-72
2022/12/21 08:28:15;;;;;;;37.33;19.10;;;;;;;3.29;63.26;100446.03;4484132;31;34868;-73
2022/12/21 08:30:42;;;;;;;38.83;18.62;;;;;;;3.24;63.47;100453.31;4485161;31;34026;-73
2022/12/21 08:33:10;;;;;;;40.08;19.35;;;;;;;3.19;63.75;100452.03;4487953;31;33554;-72
2022/12/21 08:35:38;;;;;;;34.85;17.80;;;;;;;3.34;63.45;100453.34;4480858;31;33832;-72
2022/12/21 08:38:05;;;;;;;39.65;18.60;;;;;;;3.64;62.29;100451.50;4482001;31;33571;-72
2022/12/21 08:40:32;;;;;;;38.80;18.77;;;;;;;3.38;62.56;100451.00;4485479;31;34022;-72
2022/12/21 08:43:01;;;;;;;37.08;18.60;;;;;;;3.55;62.49;100458.44;4482369;32;34059;-72
2022/12/21 08:45:28;;;;;;;38.63;18.23;;;;;;;3.41;63.28;100451.28;4483527;32;34563;-72
2022/12/21 08:47:56;;;;;;;38.55;20.02;;;;;;;3.46;64.03;100442.31;4480074;32;33818;-72
2022/12/21 08:50:24;;;;;;;39.92;19.58;;;;;;;3.54;63.36;100443.84;4483289;32;34074;-72
2022/12/21 08:52:51;;;;;;;43.40;19.62;;;;;;;3.44;63.38;100441.28;4482683;31;31401;-72
2022/12/21 08:55:19;;;;;;;44.63;21.17;;;;;;;3.53;63.12;100452.28;4478646;32;33795;-72
2022/12/21 08:57:47;;;;;;;38.17;20.58;;;;;;;3.55;63.37;100445.62;4465667;32;33284;-72
2022/12/21 09:00:14;;;;;;;43.08;20.55;;;;;;;3.10;64.51;100449.59;4484371;32;34502;-73
2022/12/21 09:02:42;;;;;;;39.58;21.27;;;;;;;3.75;62.46;100449.84;4484597;32;33651;-72
2022/12/21 09:05:10;;;;;;;44.00;23.73;;;;;;;3.71;62.40;100453.81;4489941;31;33770;-72
2022/12/21 09:07:37;;;;;;;38.55;21.15;;;;;;;3.89;62.03;100449.28;4497930;31;34067;-72
2022/12/21 09:10:06;;;;;;;44.42;23.27;;;;;;;3.92;62.02;100453.75;4493274;31;34033;-72
2022/12/21 09:12:34;;;;;;;46.75;26.27;;;;;;;3.33;63.42;100448.09;4487560;31;34498;-72
2022/12/21 09:15:01;;;;;;;40.28;21.98;;;;;;;3.80;62.04;100448.53;4492747;31;33550;-72
2022/12/21 09:17:29;;;;;;;44.40;24.27;;;;;;;3.89;61.95;100453.53;4491694;31;33716;-72
2022/12/21 09:19:57;;;;;;;45.20;23.40;;;;;;;3.49;63.05;100445.12;4498872;31;33781;-72
2022/12/21 09:22:25;;;;;;;39.20;21.62;;;;;;;3.78;62.22;100444.97;4492482;31;34224;-72
2022/12/21 09:24:53;;;;;;;46.65;21.83;;;;;;;3.52;62.72;100435.16;4493286;31;33897;-72
2022/12/21 09:27:20;;;;;;;42.08;20.30;;;;;;;3.81;62.26;100431.53;4491928;31;33788;-72
2022/12/21 09:29:48;;;;;;;42.70;20.33;;;;;;;4.01;61.67;100412.63;4490372;31;33939;-72
2022/12/21 09:32:15;;;;;;;45.28;21.85;;;;;;;3.83;62.34;100418.06;4484464;32;34799;-72
2022/12/21 09:34:43;;;;;;;44.25;21.83;;;;;;;3.61;62.89;100410.28;4488216;31;33864;-72
2022/12/21 09:37:10;;;;;;;46.05;21.15;;;;;;;3.91;61.93;100410.97;4488545;31;34514;-72
2022/12/21 09:39:51;;;;;;;43.85;22.30;;;;;;;4.27;61.04;100401.91;4485029;31;33813;-72
2022/12/21 09:42:42;;;;;;;39.70;20.00;;;;;;;3.87;62.22;100399.59;4497087;31;33211;-73
2022/12/21 09:45:16;;;;;;;44.30;20.12;;;;;;;4.36;61.21;100397.47;4468095;32;33814;-72
2022/12/21 09:47:49;;;;;;;41.10;21.13;;;;;;;4.48;59.99;100398.44;4484765;31;34300;-72
2022/12/21 09:50:28;;;;;;;46.72;22.85;;;;;;;3.91;63.41;100390.47;4483035;31;34341;-72
2022/12/21 09:53:04;;;;;;;44.10;21.90;;;;;;;4.11;61.35;100392.06;4485495;31;32898;-72
2022/12/21 09:55:35;;;;;;;41.05;20.30;;;;;;;3.78;63.26;100387.69;4472321;32;32075;-72
2022/12/21 09:58:08;;;;;;;40.83;20.52;;;;;;;4.23;61.61;100379.31;4468458;32;34672;-72
2022/12/21 10:00:36;;;;;;;40.12;20.98;;;;;;;3.70;62.59;100393.09;4481889;32;33647;-72
2022/12/21 10:03:55;;;;;;;42.42;21.00;;;;;;;4.00;62.61;100391.22;4484068;32;33720;-72
2022/12/21 10:06:37;;;;;;;44.38;21.20;;;;;;;3.64;63.26;100390.03;4447337;32;33410;-72
2022/12/21 10:09:13;;;;;;;46.53;23.40;;;;;;;4.14;61.64;100385.50;4420875;32;33805;-72
2022/12/21 10:11:51;;;;;;;43.22;22.08;;;;;;;4.06;61.57;100378.88;4451210;32;34385;-72
2022/12/21 10:14:32;;;;;;;46.13;21.23;;;;;;;4.33;60.74;100376.72;4480724;32;34316;-72
2022/12/21 10:17:14;;;;;;;45.67;23.80;;;;;;;4.10;61.33;100383.47;4473117;31;34739;-72
2022/12/21 10:20:05;;;;;;;41.47;21.55;;;;;;;4.15;61.33;100376.16;4488892;31;34666;-73
2022/12/21 10:22:36;;;;;;;42.03;21.73;;;;;;;4.36;60.41;100383.75;4484487;32;33793;-72
2022/12/21 10:25:05;;;;;;;44.85;23.73;;;;;;;4.66;60.07;100387.84;4485525;32;33314;-72
2022/12/21 10:27:37;;;;;;;46.03;22.20;;;;;;;3.97;61.75;100380.72;4469133;32;33793;-72
2022/12/21 10:30:11;;;;;;;47.13;22.45;;;;;;;4.14;61.36;100380.38;4493018;31;33974;-72
2022/12/21 10:32:40;;;;;;;42.17;20.90;;;;;;;4.13;61.27;100363.22;4472060;32;33869;-72
2022/12/21 10:35:20;;;;;;;46.03;22.70;;;;;;;4.25;61.07;100355.59;4490362;31;33496;-72
2022/12/21 10:37:56;;;;;;;42.42;22.00;;;;;;;4.36;61.47;100361.56;4492790;31;34487;-72
2022/12/21 10:40:30;;;;;;;44.70;22.48;;;;;;;4.43;61.29;100358.72;4487405;31;33885;-72
2022/12/21 10:42:58;;;;;;;44.92;23.83;;;;;;;4.51;60.17;100357.62;4490432;31;33875;-73
2022/12/21 10:45:26;;;;;;;42.58;21.80;;;;;;;4.62;60.71;100355.91;4485047;32;34276;-73
2022/12/21 10:47:54;;;;;;;47.05;22.27;;;;;;;4.69;60.76;100347.00;4466010;32;33509;-73
2022/12/21 10:50:31;;;;;;;41.78;21.23;;;;;;;4.55;60.58;100348.50;4485981;31;33853;-72
2022/12/21 10:53:00;;;;;;;42.80;21.90;;;;;;;4.21;62.35;100338.19;4483601;32;34092;-72
2022/12/21 10:55:35;;;;;;;44.33;21.90;;;;;;;3.87;63.65;100337.19;4491361;31;33702;-72
2022/12/21 10:58:02;;;;;;;45.75;23.62;;;;;;;4.20;63.05;100330.38;4489440;31;33903;-72
2022/12/21 11:00:48;;;;;;;55.00;28.48;;;;;;;4.35;61.77;100329.00;4489291;31;33802;-72
2022/12/21 11:03:26;;;;;;;50.00;25.30;;;;;;;4.33;62.43;100321.19;4491761;31;33567;-72
2022/12/21 11:05:54;;;;;;;46.55;23.52;;;;;;;4.37;63.26;100324.87;4491295;31;33548;-72
2022/12/21 11:08:27;;;;;;;48.75;24.85;;;;;;;4.18;62.80;100321.66;4493820;31;34958;-72
2022/12/21 11:11:01;;;;;;;45.63;23.67;;;;;;;3.68;64.07;100320.34;4493833;31;33109;-72
2022/12/21 11:13:31;;;;;;;46.50;23.80;;;;;;;3.79;63.63;100307.50;4492470;31;33866;-72
2022/12/21 11:16:00;;;;;;;41.53;22.52;;;;;;;3.99;63.55;100306.50;4482011;31;34254;-72
2022/12/21 11:18:43;;;;;;;47.80;24.98;;;;;;;4.31;62.73;100301.34;4487548;31;34404;-73
2022/12/21 11:21:20;;;;;;;45.55;24.20;;;;;;;4.00;64.29;100308.28;4493675;31;34031;-72
2022/12/21 11:23:56;;;;;;;44.90;21.08;;;;;;;4.40;62.40;100308.84;4483864;31;33785;-73
2022/12/21 11:26:29;;;;;;;46.00;22.60;;;;;;;4.92;60.61;100306.03;4488554;31;33152;-72
2022/12/21 11:29:05;;;;;;;43.35;22.10;;;;;;;5.04;59.50;100302.56;4470665;32;34639;-72
2022/12/21 11:31:35;;;;;;;47.33;22.55;;;;;;;4.67;61.89;100308.37;4476065;31;33772;-72
2022/12/21 11:34:24;;;;;;;45.90;22.33;;;;;;;4.59;61.04;100303.44;4478264;32;33860;-72
2022/12/21 11:37:00;;;;;;;43.22;21.52;;;;;;;4.40;61.59;100309.72;4488358;31;33318;-72
2022/12/21 11:39:46;;;;;;;45.95;22.25;;;;;;;4.43;62.65;100302.28;4478892;32;34018;-72
2022/12/21 11:42:23;;;;;;;48.17;23.40;;;;;;;4.27;63.06;100294.19;4486686;31;34663;-73
2022/12/21 11:45:07;;;;;;;44.90;22.08;;;;;;;4.26;62.53;100292.38;4495127;31;34042;-73
2022/12/21 11:48:06;;;;;;;40.63;21.55;;;;;;;4.59;61.34;100298.31;4495667;31;34140;-73
2022/12/21 11:50:42;;;;;;;40.65;20.95;;;;;;;4.53;62.51;100288.47;4467591;31;33322;-73
2022/12/21 11:53:19;;;;;;;42.65;23.12;;;;;;;4.71;61.33;100292.47;4491830;31;33009;-73